sensor_id;sensor_type;location;lat;lon;timestamp;P1;durP1;ratioP1;P2;durP2;ratioP2
31128;SDS011;17777;48.770;8.944;2024-01-27T00:00:42;3.90;;;1.88;;
31128;SDS011;17777;48.770;8.944;2024-01-27T00:03:08;3.47;;;1.90;;
31128;SDS011;17777;48.770;8.944;2024-01-27T00:05:33;3.08;;;1.90;;
31128;SDS011;17777;48.770;8.944;2024-01-27T00:07:59;3.30;;;1.95;;
31128;SDS011;17777;48.770;8.944;2024-01-27T00:10:25;4.85;;;2.17;;
31128;SDS011;17777;48.770;8.944;2024-01-27T00:12:51;3.28;;;1.80;;
31128;SDS011;17777;48.770;8.944;2024-01-27T00:15:17;5.15;;;2.50;;
31128;SDS011;17777;48.770;8.944;2024-01-27T00:17:42;4.90;;;2.45;;
31128;SDS011;17777;48.770;8.944;2024-01-27T00:20:09;2.85;;;2.00;;
31128;SDS011;17777;48.770;8.944;2024-01-27T00:22:36;3.50;;;1.95;;
31128;SDS011;17777;48.770;8.944;2024-01-27T00:25:02;3.53;;;2.05;;
31128;SDS011;17777;48.770;8.944;2024-01-27T00:27:28;5.00;;;2.20;;
31128;SDS011;17777;48.770;8.944;2024-01-27T00:29:53;4.95;;;2.35;;
31128;SDS011;17777;48.770;8.944;2024-01-27T00:32:19;4.57;;;2.13;;
31128;SDS011;17777;48.770;8.944;2024-01-27T00:34:45;3.40;;;2.00;;
31128;SDS011;17777;48.770;8.944;2024-01-27T00:37:11;5.53;;;2.25;;
31128;SDS011;17777;48.770;8.944;2024-01-27T00:39:37;3.25;;;1.80;;
31128;SDS011;17777;48.770;8.944;2024-01-27T00:42:02;5.07;;;1.95;;
31128;SDS011;17777;48.770;8.944;2024-01-27T00:44:28;3.83;;;1.92;;
31128;SDS011;17777;48.770;8.944;2024-01-27T00:46:54;3.03;;;1.70;;
31128;SDS011;17777;48.770;8.944;2024-01-27T00:49:20;3.28;;;1.80;;
31128;SDS011;17777;48.770;8.944;2024-01-27T00:51:46;3.75;;;1.90;;
31128;SDS011;17777;48.770;8.944;2024-01-27T00:54:11;2.83;;;1.70;;
31128;SDS011;17777;48.770;8.944;2024-01-27T00:56:37;4.63;;;2.42;;
31128;SDS011;17777;48.770;8.944;2024-01-27T00:59:03;4.35;;;2.08;;
31128;SDS011;17777;48.770;8.944;2024-01-27T01:01:29;3.70;;;2.17;;
31128;SDS011;17777;48.770;8.944;2024-01-27T01:03:55;4.15;;;2.50;;
31128;SDS011;17777;48.770;8.944;2024-01-27T01:06:21;4.75;;;2.00;;
31128;SDS011;17777;48.770;8.944;2024-01-27T01:08:48;2.80;;;1.85;;
31128;SDS011;17777;48.770;8.944;2024-01-27T01:11:14;4.13;;;1.73;;
31128;SDS011;17777;48.770;8.944;2024-01-27T01:13:41;4.28;;;1.73;;
31128;SDS011;17777;48.770;8.944;2024-01-27T01:16:06;3.50;;;1.80;;
31128;SDS011;17777;48.770;8.944;2024-01-27T01:18:33;5.68;;;2.08;;
31128;SDS011;17777;48.770;8.944;2024-01-27T01:20:59;2.38;;;1.63;;
31128;SDS011;17777;48.770;8.944;2024-01-27T01:23:25;4.88;;;2.42;;
31128;SDS011;17777;48.770;8.944;2024-01-27T01:25:51;4.57;;;2.45;;
31128;SDS011;17777;48.770;8.944;2024-01-27T01:28:17;3.60;;;2.25;;
31128;SDS011;17777;48.770;8.944;2024-01-27T01:30:42;3.80;;;2.10;;
31128;SDS011;17777;48.770;8.944;2024-01-27T01:33:09;4.88;;;1.90;;
31128;SDS011;17777;48.770;8.944;2024-01-27T01:35:36;3.17;;;2.00;;
31128;SDS011;17777;48.770;8.944;2024-01-27T01:38:02;3.08;;;2.10;;
31128;SDS011;17777;48.770;8.944;2024-01-27T01:40:28;4.00;;;2.17;;
31128;SDS011;17777;48.770;8.944;2024-01-27T01:42:54;2.72;;;2.10;;
31128;SDS011;17777;48.770;8.944;2024-01-27T01:45:20;5.32;;;2.25;;
31128;SDS011;17777;48.770;8.944;2024-01-27T01:47:46;3.83;;;2.10;;
31128;SDS011;17777;48.770;8.944;2024-01-27T01:50:12;2.35;;;1.63;;
31128;SDS011;17777;48.770;8.944;2024-01-27T01:52:38;2.65;;;1.80;;
31128;SDS011;17777;48.770;8.944;2024-01-27T01:55:04;4.18;;;1.95;;
31128;SDS011;17777;48.770;8.944;2024-01-27T01:57:31;2.50;;;1.80;;
31128;SDS011;17777;48.770;8.944;2024-01-27T01:59:58;3.25;;;1.77;;
31128;SDS011;17777;48.770;8.944;2024-01-27T02:02:24;5.13;;;1.83;;
31128;SDS011;17777;48.770;8.944;2024-01-27T02:04:50;7.82;;;1.67;;
31128;SDS011;17777;48.770;8.944;2024-01-27T02:07:16;4.15;;;1.80;;
31128;SDS011;17777;48.770;8.944;2024-01-27T02:09:42;4.10;;;1.65;;
31128;SDS011;17777;48.770;8.944;2024-01-27T02:12:08;4.15;;;1.50;;
31128;SDS011;17777;48.770;8.944;2024-01-27T02:14:33;3.15;;;1.55;;
31128;SDS011;17777;48.770;8.944;2024-01-27T02:16:59;3.78;;;1.30;;
31128;SDS011;17777;48.770;8.944;2024-01-27T02:19:25;1.83;;;1.50;;
31128;SDS011;17777;48.770;8.944;2024-01-27T02:21:51;1.83;;;1.48;;
31128;SDS011;17777;48.770;8.944;2024-01-27T02:24:16;2.08;;;1.40;;
31128;SDS011;17777;48.770;8.944;2024-01-27T02:26:42;3.58;;;1.50;;
31128;SDS011;17777;48.770;8.944;2024-01-27T02:29:08;3.05;;;1.60;;
31128;SDS011;17777;48.770;8.944;2024-01-27T02:31:34;4.05;;;1.73;;
31128;SDS011;17777;48.770;8.944;2024-01-27T02:33:59;1.63;;;1.15;;
31128;SDS011;17777;48.770;8.944;2024-01-27T02:36:25;1.42;;;1.33;;
31128;SDS011;17777;48.770;8.944;2024-01-27T02:38:51;2.58;;;1.42;;
31128;SDS011;17777;48.770;8.944;2024-01-27T02:41:17;3.17;;;1.65;;
31128;SDS011;17777;48.770;8.944;2024-01-27T02:43:43;2.17;;;1.40;;
31128;SDS011;17777;48.770;8.944;2024-01-27T02:46:10;3.38;;;1.40;;
31128;SDS011;17777;48.770;8.944;2024-01-27T02:48:40;1.75;;;1.10;;
31128;SDS011;17777;48.770;8.944;2024-01-27T02:51:08;2.17;;;1.40;;
31128;SDS011;17777;48.770;8.944;2024-01-27T02:53:34;2.10;;;1.67;;
31128;SDS011;17777;48.770;8.944;2024-01-27T02:56:00;3.22;;;1.48;;
31128;SDS011;17777;48.770;8.944;2024-01-27T02:58:26;1.85;;;1.20;;
31128;SDS011;17777;48.770;8.944;2024-01-27T03:00:52;2.10;;;1.23;;
31128;SDS011;17777;48.770;8.944;2024-01-27T03:03:18;1.27;;;1.17;;
31128;SDS011;17777;48.770;8.944;2024-01-27T03:05:44;2.45;;;1.40;;
31128;SDS011;17777;48.770;8.944;2024-01-27T03:08:10;1.40;;;1.17;;
31128;SDS011;17777;48.770;8.944;2024-01-27T03:10:36;2.25;;;1.33;;
31128;SDS011;17777;48.770;8.944;2024-01-27T03:13:02;1.92;;;1.17;;
31128;SDS011;17777;48.770;8.944;2024-01-27T03:15:28;2.67;;;1.40;;
31128;SDS011;17777;48.770;8.944;2024-01-27T03:17:53;2.78;;;1.20;;
31128;SDS011;17777;48.770;8.944;2024-01-27T03:20:19;2.63;;;1.55;;
31128;SDS011;17777;48.770;8.944;2024-01-27T03:22:45;3.03;;;1.38;;
31128;SDS011;17777;48.770;8.944;2024-01-27T03:25:11;3.63;;;1.73;;
31128;SDS011;17777;48.770;8.944;2024-01-27T03:27:37;1.60;;;1.50;;
31128;SDS011;17777;48.770;8.944;2024-01-27T03:30:03;2.50;;;1.20;;
31128;SDS011;17777;48.770;8.944;2024-01-27T03:32:30;1.58;;;1.27;;
31128;SDS011;17777;48.770;8.944;2024-01-27T03:35:00;2.50;;;1.40;;
31128;SDS011;17777;48.770;8.944;2024-01-27T03:37:27;1.73;;;1.08;;
31128;SDS011;17777;48.770;8.944;2024-01-27T03:39:53;3.25;;;1.52;;
31128;SDS011;17777;48.770;8.944;2024-01-27T03:42:18;3.75;;;1.63;;
31128;SDS011;17777;48.770;8.944;2024-01-27T03:44:44;2.08;;;1.50;;
31128;SDS011;17777;48.770;8.944;2024-01-27T03:47:11;3.03;;;1.60;;
31128;SDS011;17777;48.770;8.944;2024-01-27T03:49:36;2.50;;;1.40;;
31128;SDS011;17777;48.770;8.944;2024-01-27T03:52:02;3.22;;;1.75;;
31128;SDS011;17777;48.770;8.944;2024-01-27T03:54:29;3.67;;;1.67;;
31128;SDS011;17777;48.770;8.944;2024-01-27T03:56:55;1.73;;;1.63;;
31128;SDS011;17777;48.770;8.944;2024-01-27T03:59:21;3.97;;;1.88;;
31128;SDS011;17777;48.770;8.944;2024-01-27T04:01:47;2.40;;;1.70;;
31128;SDS011;17777;48.770;8.944;2024-01-27T04:04:13;3.80;;;1.65;;
31128;SDS011;17777;48.770;8.944;2024-01-27T04:06:39;3.15;;;1.83;;
31128;SDS011;17777;48.770;8.944;2024-01-27T04:09:05;4.00;;;1.42;;
31128;SDS011;17777;48.770;8.944;2024-01-27T04:11:34;3.17;;;1.55;;
31128;SDS011;17777;48.770;8.944;2024-01-27T04:14:05;1.42;;;1.13;;
31128;SDS011;17777;48.770;8.944;2024-01-27T04:16:31;1.33;;;1.10;;
31128;SDS011;17777;48.770;8.944;2024-01-27T04:18:57;4.55;;;1.42;;
31128;SDS011;17777;48.770;8.944;2024-01-27T04:21:23;2.28;;;1.30;;
31128;SDS011;17777;48.770;8.944;2024-01-27T04:23:49;2.53;;;1.30;;
31128;SDS011;17777;48.770;8.944;2024-01-27T04:26:15;2.55;;;1.20;;
31128;SDS011;17777;48.770;8.944;2024-01-27T04:28:41;4.05;;;1.27;;
31128;SDS011;17777;48.770;8.944;2024-01-27T04:31:07;3.20;;;1.35;;
31128;SDS011;17777;48.770;8.944;2024-01-27T04:33:33;1.80;;;1.10;;
31128;SDS011;17777;48.770;8.944;2024-01-27T04:35:58;2.92;;;1.40;;
31128;SDS011;17777;48.770;8.944;2024-01-27T04:38:24;1.80;;;1.20;;
31128;SDS011;17777;48.770;8.944;2024-01-27T04:40:50;3.10;;;1.23;;
31128;SDS011;17777;48.770;8.944;2024-01-27T04:43:18;1.88;;;1.40;;
31128;SDS011;17777;48.770;8.944;2024-01-27T04:45:47;3.45;;;1.48;;
31128;SDS011;17777;48.770;8.944;2024-01-27T04:48:16;2.08;;;1.30;;
31128;SDS011;17777;48.770;8.944;2024-01-27T04:50:42;3.80;;;1.60;;
31128;SDS011;17777;48.770;8.944;2024-01-27T04:53:08;3.17;;;1.40;;
31128;SDS011;17777;48.770;8.944;2024-01-27T04:55:34;2.53;;;0.98;;
31128;SDS011;17777;48.770;8.944;2024-01-27T04:58:00;3.25;;;1.50;;
31128;SDS011;17777;48.770;8.944;2024-01-27T05:00:26;5.93;;;1.45;;
31128;SDS011;17777;48.770;8.944;2024-01-27T05:02:53;2.63;;;1.50;;
31128;SDS011;17777;48.770;8.944;2024-01-27T05:05:18;2.47;;;1.40;;
31128;SDS011;17777;48.770;8.944;2024-01-27T05:07:44;1.85;;;1.30;;
31128;SDS011;17777;48.770;8.944;2024-01-27T05:10:12;4.10;;;1.23;;
31128;SDS011;17777;48.770;8.944;2024-01-27T05:12:38;3.72;;;1.50;;
31128;SDS011;17777;48.770;8.944;2024-01-27T05:15:04;3.72;;;1.50;;
31128;SDS011;17777;48.770;8.944;2024-01-27T05:17:30;3.65;;;1.40;;
31128;SDS011;17777;48.770;8.944;2024-01-27T05:19:57;3.83;;;1.38;;
31128;SDS011;17777;48.770;8.944;2024-01-27T05:22:23;3.60;;;1.23;;
31128;SDS011;17777;48.770;8.944;2024-01-27T05:24:49;1.48;;;1.15;;
31128;SDS011;17777;48.770;8.944;2024-01-27T05:27:15;6.10;;;1.50;;
31128;SDS011;17777;48.770;8.944;2024-01-27T05:29:41;2.50;;;1.20;;
31128;SDS011;17777;48.770;8.944;2024-01-27T05:32:06;2.47;;;1.42;;
31128;SDS011;17777;48.770;8.944;2024-01-27T05:34:33;1.70;;;1.38;;
31128;SDS011;17777;48.770;8.944;2024-01-27T05:36:59;1.80;;;1.05;;
31128;SDS011;17777;48.770;8.944;2024-01-27T05:39:25;3.17;;;1.42;;
31128;SDS011;17777;48.770;8.944;2024-01-27T05:41:51;3.65;;;1.80;;
31128;SDS011;17777;48.770;8.944;2024-01-27T05:44:16;2.38;;;1.70;;
31128;SDS011;17777;48.770;8.944;2024-01-27T05:46:42;3.38;;;1.90;;
31128;SDS011;17777;48.770;8.944;2024-01-27T05:49:08;2.58;;;1.65;;
31128;SDS011;17777;48.770;8.944;2024-01-27T05:51:34;1.92;;;1.50;;
31128;SDS011;17777;48.770;8.944;2024-01-27T05:53:59;3.20;;;1.33;;
31128;SDS011;17777;48.770;8.944;2024-01-27T05:56:25;2.17;;;1.40;;
31128;SDS011;17777;48.770;8.944;2024-01-27T05:58:51;2.70;;;1.65;;
31128;SDS011;17777;48.770;8.944;2024-01-27T06:01:17;3.08;;;1.20;;
31128;SDS011;17777;48.770;8.944;2024-01-27T06:03:44;3.75;;;1.50;;
31128;SDS011;17777;48.770;8.944;2024-01-27T06:06:10;1.90;;;1.42;;
31128;SDS011;17777;48.770;8.944;2024-01-27T06:08:36;4.68;;;1.65;;
31128;SDS011;17777;48.770;8.944;2024-01-27T06:11:02;4.60;;;1.50;;
31128;SDS011;17777;48.770;8.944;2024-01-27T06:13:28;2.92;;;1.40;;
31128;SDS011;17777;48.770;8.944;2024-01-27T06:15:55;4.53;;;1.40;;
31128;SDS011;17777;48.770;8.944;2024-01-27T06:18:21;5.25;;;1.70;;
31128;SDS011;17777;48.770;8.944;2024-01-27T06:20:47;4.00;;;1.60;;
31128;SDS011;17777;48.770;8.944;2024-01-27T06:23:12;2.25;;;1.42;;
31128;SDS011;17777;48.770;8.944;2024-01-27T06:25:38;3.30;;;1.52;;
31128;SDS011;17777;48.770;8.944;2024-01-27T06:28:05;3.30;;;1.50;;
31128;SDS011;17777;48.770;8.944;2024-01-27T06:30:31;4.13;;;2.03;;
31128;SDS011;17777;48.770;8.944;2024-01-27T06:32:57;3.65;;;2.15;;
31128;SDS011;17777;48.770;8.944;2024-01-27T06:35:23;4.90;;;2.33;;
31128;SDS011;17777;48.770;8.944;2024-01-27T06:37:49;5.13;;;3.10;;
31128;SDS011;17777;48.770;8.944;2024-01-27T06:40:15;3.92;;;2.13;;
31128;SDS011;17777;48.770;8.944;2024-01-27T06:42:41;4.22;;;2.17;;
31128;SDS011;17777;48.770;8.944;2024-01-27T06:45:08;6.28;;;2.90;;
31128;SDS011;17777;48.770;8.944;2024-01-27T06:47:34;6.35;;;3.03;;
31128;SDS011;17777;48.770;8.944;2024-01-27T06:49:59;4.10;;;3.05;;
31128;SDS011;17777;48.770;8.944;2024-01-27T06:52:25;2.42;;;1.90;;
31128;SDS011;17777;48.770;8.944;2024-01-27T06:54:51;4.07;;;2.05;;
31128;SDS011;17777;48.770;8.944;2024-01-27T06:57:17;4.57;;;1.92;;
31128;SDS011;17777;48.770;8.944;2024-01-27T06:59:47;3.22;;;1.70;;
31128;SDS011;17777;48.770;8.944;2024-01-27T07:02:26;1.52;;;1.33;;
31128;SDS011;17777;48.770;8.944;2024-01-27T07:04:56;3.17;;;1.45;;
31128;SDS011;17777;48.770;8.944;2024-01-27T07:07:23;4.57;;;1.75;;
31128;SDS011;17777;48.770;8.944;2024-01-27T07:09:52;5.03;;;1.92;;
31128;SDS011;17777;48.770;8.944;2024-01-27T07:12:20;2.25;;;1.80;;
31128;SDS011;17777;48.770;8.944;2024-01-27T07:14:46;3.15;;;1.73;;
31128;SDS011;17777;48.770;8.944;2024-01-27T07:17:12;3.13;;;1.80;;
31128;SDS011;17777;48.770;8.944;2024-01-27T07:19:38;5.32;;;1.90;;
31128;SDS011;17777;48.770;8.944;2024-01-27T07:22:04;2.83;;;1.98;;
31128;SDS011;17777;48.770;8.944;2024-01-27T07:24:30;2.67;;;1.95;;
31128;SDS011;17777;48.770;8.944;2024-01-27T07:26:56;3.55;;;2.00;;
31128;SDS011;17777;48.770;8.944;2024-01-27T07:29:23;7.28;;;2.80;;
31128;SDS011;17777;48.770;8.944;2024-01-27T07:31:49;5.95;;;3.05;;
31128;SDS011;17777;48.770;8.944;2024-01-27T07:34:15;5.18;;;2.92;;
31128;SDS011;17777;48.770;8.944;2024-01-27T07:36:41;6.13;;;2.67;;
31128;SDS011;17777;48.770;8.944;2024-01-27T07:39:07;3.55;;;2.50;;
31128;SDS011;17777;48.770;8.944;2024-01-27T07:41:33;3.83;;;2.53;;
31128;SDS011;17777;48.770;8.944;2024-01-27T07:44:09;3.78;;;2.22;;
31128;SDS011;17777;48.770;8.944;2024-01-27T07:46:38;3.40;;;2.20;;
31128;SDS011;17777;48.770;8.944;2024-01-27T07:49:08;4.13;;;2.05;;
31128;SDS011;17777;48.770;8.944;2024-01-27T07:51:35;3.35;;;2.10;;
31128;SDS011;17777;48.770;8.944;2024-01-27T07:54:00;4.47;;;2.00;;
31128;SDS011;17777;48.770;8.944;2024-01-27T07:56:26;2.65;;;1.88;;
31128;SDS011;17777;48.770;8.944;2024-01-27T07:58:52;2.78;;;1.55;;
31128;SDS011;17777;48.770;8.944;2024-01-27T08:01:19;2.85;;;1.73;;
31128;SDS011;17777;48.770;8.944;2024-01-27T08:03:45;3.33;;;1.92;;
31128;SDS011;17777;48.770;8.944;2024-01-27T08:06:15;2.15;;;1.52;;
31128;SDS011;17777;48.770;8.944;2024-01-27T08:08:46;2.67;;;1.83;;
31128;SDS011;17777;48.770;8.944;2024-01-27T08:11:13;2.63;;;1.63;;
31128;SDS011;17777;48.770;8.944;2024-01-27T08:13:40;5.50;;;2.55;;
31128;SDS011;17777;48.770;8.944;2024-01-27T08:16:07;3.88;;;1.92;;
31128;SDS011;17777;48.770;8.944;2024-01-27T08:18:37;3.40;;;2.50;;
31128;SDS011;17777;48.770;8.944;2024-01-27T08:21:09;3.78;;;2.50;;
31128;SDS011;17777;48.770;8.944;2024-01-27T08:23:37;6.00;;;2.58;;
31128;SDS011;17777;48.770;8.944;2024-01-27T08:26:03;3.58;;;2.70;;
31128;SDS011;17777;48.770;8.944;2024-01-27T08:28:28;4.90;;;2.30;;
31128;SDS011;17777;48.770;8.944;2024-01-27T08:30:54;5.38;;;2.83;;
31128;SDS011;17777;48.770;8.944;2024-01-27T08:33:20;4.38;;;2.30;;
31128;SDS011;17777;48.770;8.944;2024-01-27T08:35:46;5.47;;;2.55;;
31128;SDS011;17777;48.770;8.944;2024-01-27T08:38:15;5.35;;;2.53;;
31128;SDS011;17777;48.770;8.944;2024-01-27T08:40:41;7.47;;;3.60;;
31128;SDS011;17777;48.770;8.944;2024-01-27T08:43:07;4.78;;;2.50;;
31128;SDS011;17777;48.770;8.944;2024-01-27T08:45:35;5.00;;;2.30;;
31128;SDS011;17777;48.770;8.944;2024-01-27T08:48:02;3.63;;;2.67;;
31128;SDS011;17777;48.770;8.944;2024-01-27T08:50:28;7.70;;;2.42;;
31128;SDS011;17777;48.770;8.944;2024-01-27T08:52:54;6.38;;;2.60;;
31128;SDS011;17777;48.770;8.944;2024-01-27T08:55:20;4.53;;;2.00;;
31128;SDS011;17777;48.770;8.944;2024-01-27T08:57:49;3.95;;;2.05;;
31128;SDS011;17777;48.770;8.944;2024-01-27T09:00:15;5.28;;;2.13;;
31128;SDS011;17777;48.770;8.944;2024-01-27T09:02:42;2.38;;;1.75;;
31128;SDS011;17777;48.770;8.944;2024-01-27T09:05:08;5.30;;;2.50;;
31128;SDS011;17777;48.770;8.944;2024-01-27T09:07:34;4.80;;;2.45;;
31128;SDS011;17777;48.770;8.944;2024-01-27T09:10:00;3.25;;;1.90;;
31128;SDS011;17777;48.770;8.944;2024-01-27T09:12:27;4.43;;;2.42;;
31128;SDS011;17777;48.770;8.944;2024-01-27T09:14:52;4.05;;;2.92;;
31128;SDS011;17777;48.770;8.944;2024-01-27T09:17:19;3.85;;;2.42;;
31128;SDS011;17777;48.770;8.944;2024-01-27T09:19:46;4.10;;;2.33;;
31128;SDS011;17777;48.770;8.944;2024-01-27T09:22:12;4.22;;;2.40;;
31128;SDS011;17777;48.770;8.944;2024-01-27T09:24:37;7.03;;;2.72;;
31128;SDS011;17777;48.770;8.944;2024-01-27T09:27:04;6.05;;;2.55;;
31128;SDS011;17777;48.770;8.944;2024-01-27T09:29:30;4.57;;;2.72;;
31128;SDS011;17777;48.770;8.944;2024-01-27T09:31:56;4.38;;;2.50;;
31128;SDS011;17777;48.770;8.944;2024-01-27T09:34:22;5.32;;;2.22;;
31128;SDS011;17777;48.770;8.944;2024-01-27T09:36:48;3.55;;;2.33;;
31128;SDS011;17777;48.770;8.944;2024-01-27T09:39:13;3.33;;;2.28;;
31128;SDS011;17777;48.770;8.944;2024-01-27T09:41:39;5.20;;;2.28;;
31128;SDS011;17777;48.770;8.944;2024-01-27T09:44:06;2.50;;;1.85;;
31128;SDS011;17777;48.770;8.944;2024-01-27T09:46:31;5.90;;;2.80;;
31128;SDS011;17777;48.770;8.944;2024-01-27T09:48:57;3.35;;;2.10;;
31128;SDS011;17777;48.770;8.944;2024-01-27T09:51:24;7.47;;;2.83;;
31128;SDS011;17777;48.770;8.944;2024-01-27T09:53:54;5.97;;;2.40;;
31128;SDS011;17777;48.770;8.944;2024-01-27T09:56:19;4.38;;;2.60;;
31128;SDS011;17777;48.770;8.944;2024-01-27T09:58:46;5.22;;;2.60;;
31128;SDS011;17777;48.770;8.944;2024-01-27T10:01:16;3.72;;;2.22;;
31128;SDS011;17777;48.770;8.944;2024-01-27T10:03:46;4.07;;;2.55;;
31128;SDS011;17777;48.770;8.944;2024-01-27T10:06:12;4.90;;;2.70;;
31128;SDS011;17777;48.770;8.944;2024-01-27T10:08:40;6.43;;;2.50;;
31128;SDS011;17777;48.770;8.944;2024-01-27T10:11:10;5.53;;;2.33;;
31128;SDS011;17777;48.770;8.944;2024-01-27T10:13:40;5.03;;;2.10;;
31128;SDS011;17777;48.770;8.944;2024-01-27T10:16:06;8.07;;;2.40;;
31128;SDS011;17777;48.770;8.944;2024-01-27T10:18:34;4.13;;;2.22;;
31128;SDS011;17777;48.770;8.944;2024-01-27T10:21:01;6.03;;;2.85;;
31128;SDS011;17777;48.770;8.944;2024-01-27T10:23:46;3.60;;;2.30;;
31128;SDS011;17777;48.770;8.944;2024-01-27T10:26:12;4.78;;;2.65;;
31128;SDS011;17777;48.770;8.944;2024-01-27T10:28:38;3.78;;;2.47;;
31128;SDS011;17777;48.770;8.944;2024-01-27T10:31:10;5.07;;;2.72;;
31128;SDS011;17777;48.770;8.944;2024-01-27T10:33:37;4.00;;;2.20;;
31128;SDS011;17777;48.770;8.944;2024-01-27T10:36:04;3.78;;;2.22;;
31128;SDS011;17777;48.770;8.944;2024-01-27T10:38:37;2.53;;;2.05;;
31128;SDS011;17777;48.770;8.944;2024-01-27T10:41:04;5.47;;;2.65;;
31128;SDS011;17777;48.770;8.944;2024-01-27T10:43:37;3.42;;;2.35;;
31128;SDS011;17777;48.770;8.944;2024-01-27T10:46:05;4.63;;;2.10;;
31128;SDS011;17777;48.770;8.944;2024-01-27T10:48:35;5.25;;;2.60;;
31128;SDS011;17777;48.770;8.944;2024-01-27T10:51:03;4.47;;;2.30;;
31128;SDS011;17777;48.770;8.944;2024-01-27T10:53:35;4.72;;;2.17;;
31128;SDS011;17777;48.770;8.944;2024-01-27T10:56:05;6.82;;;2.30;;
31128;SDS011;17777;48.770;8.944;2024-01-27T10:58:34;6.15;;;2.20;;
31128;SDS011;17777;48.770;8.944;2024-01-27T11:01:10;6.63;;;3.00;;
31128;SDS011;17777;48.770;8.944;2024-01-27T11:03:38;4.55;;;2.80;;
31128;SDS011;17777;48.770;8.944;2024-01-27T11:06:05;4.80;;;2.67;;
31128;SDS011;17777;48.770;8.944;2024-01-27T11:08:33;7.35;;;3.05;;
31128;SDS011;17777;48.770;8.944;2024-01-27T11:11:00;4.22;;;2.63;;
31128;SDS011;17777;48.770;8.944;2024-01-27T11:13:27;6.03;;;2.88;;
31128;SDS011;17777;48.770;8.944;2024-01-27T11:15:55;6.95;;;2.67;;
31128;SDS011;17777;48.770;8.944;2024-01-27T11:18:21;8.02;;;2.83;;
31128;SDS011;17777;48.770;8.944;2024-01-27T11:20:47;5.45;;;2.60;;
31128;SDS011;17777;48.770;8.944;2024-01-27T11:23:13;6.88;;;2.20;;
31128;SDS011;17777;48.770;8.944;2024-01-27T11:25:39;4.70;;;2.40;;
31128;SDS011;17777;48.770;8.944;2024-01-27T11:28:12;4.72;;;2.53;;
31128;SDS011;17777;48.770;8.944;2024-01-27T11:30:44;8.95;;;2.97;;
31128;SDS011;17777;48.770;8.944;2024-01-27T11:33:12;5.47;;;2.55;;
31128;SDS011;17777;48.770;8.944;2024-01-27T11:35:38;4.05;;;2.47;;
31128;SDS011;17777;48.770;8.944;2024-01-27T11:38:04;4.18;;;2.10;;
31128;SDS011;17777;48.770;8.944;2024-01-27T11:40:30;5.57;;;2.40;;
31128;SDS011;17777;48.770;8.944;2024-01-27T11:42:57;4.35;;;2.15;;
31128;SDS011;17777;48.770;8.944;2024-01-27T11:45:26;5.82;;;2.53;;
31128;SDS011;17777;48.770;8.944;2024-01-27T11:47:55;6.72;;;2.63;;
31128;SDS011;17777;48.770;8.944;2024-01-27T11:50:21;4.65;;;2.35;;
31128;SDS011;17777;48.770;8.944;2024-01-27T11:52:48;6.50;;;2.58;;
31128;SDS011;17777;48.770;8.944;2024-01-27T11:55:14;5.35;;;2.17;;
31128;SDS011;17777;48.770;8.944;2024-01-27T11:57:41;3.45;;;1.75;;
31128;SDS011;17777;48.770;8.944;2024-01-27T12:00:07;6.35;;;2.22;;
31128;SDS011;17777;48.770;8.944;2024-01-27T12:02:37;6.07;;;2.50;;
31128;SDS011;17777;48.770;8.944;2024-01-27T12:05:04;8.55;;;2.40;;
31128;SDS011;17777;48.770;8.944;2024-01-27T12:07:31;6.78;;;2.63;;
31128;SDS011;17777;48.770;8.944;2024-01-27T12:09:57;4.35;;;1.73;;
31128;SDS011;17777;48.770;8.944;2024-01-27T12:12:23;4.88;;;2.13;;
31128;SDS011;17777;48.770;8.944;2024-01-27T12:14:49;7.35;;;2.75;;
31128;SDS011;17777;48.770;8.944;2024-01-27T12:17:16;3.05;;;1.70;;
31128;SDS011;17777;48.770;8.944;2024-01-27T12:19:46;3.30;;;2.03;;
31128;SDS011;17777;48.770;8.944;2024-01-27T12:22:29;5.18;;;2.30;;
31128;SDS011;17777;48.770;8.944;2024-01-27T12:24:56;3.70;;;2.05;;
31128;SDS011;17777;48.770;8.944;2024-01-27T12:27:41;3.73;;;2.17;;
31128;SDS011;17777;48.770;8.944;2024-01-27T12:30:08;4.50;;;2.17;;
31128;SDS011;17777;48.770;8.944;2024-01-27T12:32:35;4.38;;;1.98;;
31128;SDS011;17777;48.770;8.944;2024-01-27T12:35:05;4.90;;;2.05;;
31128;SDS011;17777;48.770;8.944;2024-01-27T12:37:31;12.55;;;2.25;;
31128;SDS011;17777;48.770;8.944;2024-01-27T12:39:57;4.80;;;2.00;;
31128;SDS011;17777;48.770;8.944;2024-01-27T12:42:22;7.57;;;2.80;;
31128;SDS011;17777;48.770;8.944;2024-01-27T12:44:48;5.78;;;2.33;;
31128;SDS011;17777;48.770;8.944;2024-01-27T12:47:14;4.30;;;1.98;;
31128;SDS011;17777;48.770;8.944;2024-01-27T12:49:40;6.35;;;2.45;;
31128;SDS011;17777;48.770;8.944;2024-01-27T12:52:06;6.18;;;2.42;;
31128;SDS011;17777;48.770;8.944;2024-01-27T12:54:32;4.55;;;2.08;;
31128;SDS011;17777;48.770;8.944;2024-01-27T12:56:59;3.38;;;1.77;;
31128;SDS011;17777;48.770;8.944;2024-01-27T12:59:26;4.15;;;2.00;;
31128;SDS011;17777;48.770;8.944;2024-01-27T13:01:53;5.25;;;2.00;;
31128;SDS011;17777;48.770;8.944;2024-01-27T13:04:19;4.72;;;2.10;;
31128;SDS011;17777;48.770;8.944;2024-01-27T13:06:45;7.93;;;1.70;;
31128;SDS011;17777;48.770;8.944;2024-01-27T13:09:11;3.00;;;1.63;;
31128;SDS011;17777;48.770;8.944;2024-01-27T13:11:37;3.28;;;1.60;;
31128;SDS011;17777;48.770;8.944;2024-01-27T13:14:03;5.90;;;1.50;;
31128;SDS011;17777;48.770;8.944;2024-01-27T13:16:30;3.92;;;1.60;;
31128;SDS011;17777;48.770;8.944;2024-01-27T13:18:56;3.60;;;1.27;;
31128;SDS011;17777;48.770;8.944;2024-01-27T13:21:22;4.07;;;1.30;;
31128;SDS011;17777;48.770;8.944;2024-01-27T13:23:48;4.22;;;1.35;;
31128;SDS011;17777;48.770;8.944;2024-01-27T13:26:14;3.35;;;1.42;;
31128;SDS011;17777;48.770;8.944;2024-01-27T13:28:41;3.83;;;1.35;;
31128;SDS011;17777;48.770;8.944;2024-01-27T13:31:06;7.97;;;1.73;;
31128;SDS011;17777;48.770;8.944;2024-01-27T13:33:32;3.55;;;1.15;;
31128;SDS011;17777;48.770;8.944;2024-01-27T13:36:00;2.13;;;1.10;;
31128;SDS011;17777;48.770;8.944;2024-01-27T13:38:26;2.95;;;1.13;;
31128;SDS011;17777;48.770;8.944;2024-01-27T13:40:52;3.47;;;1.15;;
31128;SDS011;17777;48.770;8.944;2024-01-27T13:43:18;1.15;;;0.90;;
31128;SDS011;17777;48.770;8.944;2024-01-27T13:45:44;2.03;;;1.05;;
31128;SDS011;17777;48.770;8.944;2024-01-27T13:48:12;3.97;;;0.93;;
31128;SDS011;17777;48.770;8.944;2024-01-27T13:50:37;2.42;;;1.33;;
31128;SDS011;17777;48.770;8.944;2024-01-27T13:53:03;3.30;;;1.30;;
31128;SDS011;17777;48.770;8.944;2024-01-27T13:55:30;4.97;;;1.10;;
31128;SDS011;17777;48.770;8.944;2024-01-27T13:57:56;4.18;;;1.40;;
31128;SDS011;17777;48.770;8.944;2024-01-27T14:00:22;2.25;;;1.30;;
31128;SDS011;17777;48.770;8.944;2024-01-27T14:02:48;2.60;;;1.60;;
31128;SDS011;17777;48.770;8.944;2024-01-27T14:05:14;3.65;;;1.10;;
31128;SDS011;17777;48.770;8.944;2024-01-27T14:07:39;4.05;;;1.42;;
31128;SDS011;17777;48.770;8.944;2024-01-27T14:10:05;4.28;;;1.60;;
31128;SDS011;17777;48.770;8.944;2024-01-27T14:12:32;4.38;;;1.50;;
31128;SDS011;17777;48.770;8.944;2024-01-27T14:15:04;3.10;;;1.10;;
31128;SDS011;17777;48.770;8.944;2024-01-27T14:17:35;2.83;;;1.20;;
31128;SDS011;17777;48.770;8.944;2024-01-27T14:20:04;3.58;;;1.20;;
31128;SDS011;17777;48.770;8.944;2024-01-27T14:22:31;4.53;;;1.50;;
31128;SDS011;17777;48.770;8.944;2024-01-27T14:24:56;2.78;;;1.38;;
31128;SDS011;17777;48.770;8.944;2024-01-27T14:27:22;3.20;;;1.33;;
31128;SDS011;17777;48.770;8.944;2024-01-27T14:29:52;3.08;;;1.27;;
31128;SDS011;17777;48.770;8.944;2024-01-27T14:32:21;4.10;;;1.10;;
31128;SDS011;17777;48.770;8.944;2024-01-27T14:34:48;2.67;;;1.10;;
31128;SDS011;17777;48.770;8.944;2024-01-27T14:37:15;3.03;;;1.10;;
31128;SDS011;17777;48.770;8.944;2024-01-27T14:39:44;2.35;;;0.85;;
31128;SDS011;17777;48.770;8.944;2024-01-27T14:42:11;3.10;;;0.88;;
31128;SDS011;17777;48.770;8.944;2024-01-27T14:44:38;3.60;;;1.13;;